Time;durP1;ratioP1;P1;durP2;ratioP2;P2;SDS_P1;SDS_P2;PMS_P1;PMS_P2;Temp;Humidity;BMP_temperature;BMP_pressure;BME280_temperature;BME280_humidity;BME280_pressure;Samples;Min_cycle;Max_cycle;Signal;HPM_P1;HPM_P2
2022/07/29 00:01:49;;;;;;;;;;;15.90;99.90;;;;;;5068484;28;20286;-78
2022/07/29 00:04:14;;;;;;;;;;;15.90;99.90;;;;;;5063033;28;20371;-72
2022/07/29 00:06:40;;;;;;;;;;;16.00;99.90;;;;;;5065407;28;19925;-72
2022/07/29 00:09:05;;;;;;;;;;;16.00;99.90;;;;;;5065552;28;20654;-86
2022/07/29 00:11:31;;;;;;;;;;;15.90;99.90;;;;;;5065341;28;19916;-78
2022/07/29 00:13:56;;;;;;;;;;;15.80;99.90;;;;;;5062606;28;19920;-79
2022/07/29 00:16:22;;;;;;;;;;;15.80;99.90;;;;;;5066163;28;19923;-79
2022/07/29 00:18:48;;;;;;;;;;;15.70;99.90;;;;;;5062780;28;19919;-80
2022/07/29 00:21:14;;;;;;;;;;;15.70;99.90;;;;;;5068176;28;19913;-80
2022/07/29 00:23:39;;;;;;;;;;;15.60;99.90;;;;;;5065186;28;19958;-79
2022/07/29 00:26:05;;;;;;;;;;;15.70;99.90;;;;;;5063159;28;19920;-81
2022/07/29 00:28:30;;;;;;;;;;;15.70;99.90;;;;;;5063132;28;19963;-78
2022/07/29 00:30:55;;;;;;;;;;;15.80;99.90;;;;;;5065034;28;19990;-80
2022/07/29 00:33:21;;;;;;;;;;;15.80;99.90;;;;;;5064872;28;19916;-79
2022/07/29 00:35:47;;;;;;;;;;;15.70;99.90;;;;;;5063196;28;19973;-80
2022/07/29 00:38:14;;;;;;;;;;;15.60;99.90;;;;;;5072104;28;19916;-82
2022/07/29 00:40:40;;;;;;;;;;;15.70;99.90;;;;;;5079696;28;19916;-82
2022/07/29 00:43:05;;;;;;;;;;;15.70;99.90;;;;;;5082245;28;19923;-83
2022/07/29 00:45:31;;;;;;;;;;;15.60;99.90;;;;;;5074867;28;19922;-81
2022/07/29 00:47:56;;;;;;;;;;;15.50;99.90;;;;;;5070512;28;19959;-83
2022/07/29 00:50:22;;;;;;;;;;;15.50;99.90;;;;;;5068212;28;19916;-78
2022/07/29 00:52:47;;;;;;;;;;;15.40;99.90;;;;;;5068359;28;19916;-84
2022/07/29 00:55:15;;;;;;;;;;;15.40;99.90;;;;;;5065984;28;19963;-84
2022/07/29 00:57:42;;;;;;;;;;;15.40;99.90;;;;;;5067572;28;19928;-80
2022/07/29 01:00:09;;;;;;;;;;;15.40;99.90;;;;;;5065371;28;19922;-80
2022/07/29 01:02:34;;;;;;;;;;;15.40;99.90;;;;;;5065315;28;20371;-78
2022/07/29 01:05:00;;;;;;;;;;;15.30;99.90;;;;;;5065221;28;19917;-81
2022/07/29 01:07:26;;;;;;;;;;;15.30;99.90;;;;;;5066884;28;20268;-79
2022/07/29 01:09:53;;;;;;;;;;;15.30;99.90;;;;;;5063191;28;19917;-78
2022/07/29 01:12:21;;;;;;;;;;;15.20;99.90;;;;;;5063471;28;20635;-79
2022/07/29 01:14:47;;;;;;;;;;;15.30;99.90;;;;;;5065166;28;19970;-78
2022/07/29 01:17:17;;;;;;;;;;;15.30;99.90;;;;;;5066726;28;19923;-79
2022/07/29 01:19:52;;;;;;;;;;;15.20;99.90;;;;;;5065320;28;20378;-79
2022/07/29 01:22:20;;;;;;;;;;;15.20;99.90;;;;;;5067543;28;20019;-78
2022/07/29 01:25:00;;;;;;;;;;;15.20;99.90;;;;;;5065599;28;19999;-79
2022/07/29 01:27:33;;;;;;;;;;;15.10;99.90;;;;;;5065515;28;19939;-78
2022/07/29 01:29:59;;;;;;;;;;;15.20;99.90;;;;;;5054159;28;20363;-79
2022/07/29 01:51:03;;;;;;;;;;;14.80;99.90;;;;;;5063242;28;19955;-80
2022/07/29 01:53:32;;;;;;;;;;;14.80;99.90;;;;;;5052851;28;19920;-79
2022/07/29 01:55:58;;;;;;;;;;;14.70;99.90;;;;;;5058643;28;19974;-80
2022/07/29 01:58:24;;;;;;;;;;;14.70;99.90;;;;;;5065696;28;19921;-79
2022/07/29 02:00:50;;;;;;;;;;;14.60;99.90;;;;;;5064834;28;20007;-79
2022/07/29 02:03:17;;;;;;;;;;;14.70;99.90;;;;;;5066439;28;19916;-80
2022/07/29 02:05:45;;;;;;;;;;;14.60;99.90;;;;;;5064618;28;19944;-79
2022/07/29 02:08:11;;;;;;;;;;;14.70;99.90;;;;;;5065902;28;19916;-80
2022/07/29 02:10:38;;;;;;;;;;;14.60;99.90;;;;;;5064823;28;20007;-80
2022/07/29 02:13:05;;;;;;;;;;;14.60;99.90;;;;;;5066214;28;19924;-79
2022/07/29 02:15:32;;;;;;;;;;;14.50;99.90;;;;;;5059057;28;19920;-78
2022/07/29 02:17:59;;;;;;;;;;;14.50;99.90;;;;;;5066946;28;19913;-79
2022/07/29 02:20:25;;;;;;;;;;;14.50;99.90;;;;;;5064138;28;19912;-78
2022/07/29 02:22:52;;;;;;;;;;;14.50;99.90;;;;;;5066231;28;19921;-79
2022/07/29 02:25:17;;;;;;;;;;;14.50;99.90;;;;;;5061977;28;19918;-84
2022/07/29 02:27:44;;;;;;;;;;;14.60;99.90;;;;;;5065702;28;19917;-78
2022/07/29 02:30:12;;;;;;;;;;;14.50;99.90;;;;;;5055538;28;19917;-78
2022/07/29 02:32:39;;;;;;;;;;;14.50;99.90;;;;;;5065032;28;20439;-78
2022/07/29 02:35:05;;;;;;;;;;;14.50;99.90;;;;;;5063984;28;19920;-77
2022/07/29 02:37:31;;;;;;;;;;;14.40;99.90;;;;;;5050445;28;19917;-79
2022/07/29 02:39:57;;;;;;;;;;;14.50;99.90;;;;;;5062871;28;19916;-78
2022/07/29 02:42:23;;;;;;;;;;;14.50;99.90;;;;;;5055449;28;19913;-78
2022/07/29 02:44:49;;;;;;;;;;;14.50;99.90;;;;;;5063059;28;19916;-79
2022/07/29 02:47:15;;;;;;;;;;;14.50;99.90;;;;;;5060507;28;19909;-78
2022/07/29 02:49:59;;;;;;;;;;;14.50;99.90;;;;;;5063051;28;20513;-78
2022/07/29 02:52:42;;;;;;;;;;;14.50;99.90;;;;;;5065939;28;19967;-78
2022/07/29 02:55:14;;;;;;;;;;;14.50;99.90;;;;;;5063853;28;20007;-79
2022/07/29 02:57:44;;;;;;;;;;;14.60;99.90;;;;;;5065828;28;19931;-80
2022/07/29 03:00:09;;;;;;;;;;;14.50;99.90;;;;;;5064005;28;19998;-80
2022/07/29 03:02:37;;;;;;;;;;;14.40;99.90;;;;;;5061976;28;20343;-78
2022/07/29 03:05:04;;;;;;;;;;;14.50;99.90;;;;;;5063341;28;19993;-79
2022/07/29 03:07:29;;;;;;;;;;;14.60;99.90;;;;;;5065504;28;20352;-79
2022/07/29 03:09:55;;;;;;;;;;;14.50;99.90;;;;;;5063500;28;19916;-79
2022/07/29 03:12:21;;;;;;;;;;;14.60;99.90;;;;;;5064039;28;19966;-79
2022/07/29 03:14:47;;;;;;;;;;;14.60;99.90;;;;;;5062711;28;19923;-78
2022/07/29 03:17:12;;;;;;;;;;;14.60;99.90;;;;;;5065066;28;20425;-79
2022/07/29 03:19:38;;;;;;;;;;;14.60;99.90;;;;;;5063661;28;19912;-79
2022/07/29 03:22:04;;;;;;;;;;;14.60;99.90;;;;;;5065782;28;19912;-78
2022/07/29 03:24:34;;;;;;;;;;;14.60;99.90;;;;;;5063184;28;19920;-79
2022/07/29 03:27:00;;;;;;;;;;;14.70;99.90;;;;;;5058415;28;20433;-78
2022/07/29 03:29:25;;;;;;;;;;;14.80;99.90;;;;;;5062425;28;19925;-78
2022/07/29 03:31:51;;;;;;;;;;;14.80;99.90;;;;;;5054189;28;19921;-78
2022/07/29 03:34:16;;;;;;;;;;;14.90;99.90;;;;;;5064478;28;19917;-79
2022/07/29 03:36:42;;;;;;;;;;;14.90;99.90;;;;;;5049857;28;19916;-79
2022/07/29 03:39:08;;;;;;;;;;;14.90;99.90;;;;;;5066060;28;20294;-78
2022/07/29 03:41:35;;;;;;;;;;;14.90;99.90;;;;;;5063127;28;19923;-78
2022/07/29 03:44:01;;;;;;;;;;;15.00;99.90;;;;;;5064288;28;19959;-78
2022/07/29 03:46:28;;;;;;;;;;;15.00;99.90;;;;;;5057677;28;19920;-77
2022/07/29 03:48:57;;;;;;;;;;;15.00;99.90;;;;;;5065835;28;19922;-78
2022/07/29 03:51:23;;;;;;;;;;;15.00;99.90;;;;;;5062092;28;20286;-78
2022/07/29 03:53:48;;;;;;;;;;;15.00;99.90;;;;;;5064236;28;19921;-79
2022/07/29 03:56:16;;;;;;;;;;;15.10;99.90;;;;;;5062474;28;19912;-78
2022/07/29 03:58:42;;;;;;;;;;;15.10;99.90;;;;;;5065053;28;19930;-80
2022/07/29 04:01:07;;;;;;;;;;;15.00;99.90;;;;;;5063468;28;19942;-79
2022/07/29 04:03:34;;;;;;;;;;;15.10;99.90;;;;;;5064812;28;19916;-79
2022/07/29 04:06:00;;;;;;;;;;;15.10;99.90;;;;;;5060276;28;19916;-79
2022/07/29 04:08:26;;;;;;;;;;;15.10;99.90;;;;;;5064196;28;19916;-77
2022/07/29 04:10:52;;;;;;;;;;;15.10;99.90;;;;;;5063110;28;20283;-78
2022/07/29 04:13:18;;;;;;;;;;;15.10;99.90;;;;;;5064779;28;19920;-79
2022/07/29 04:15:43;;;;;;;;;;;15.00;99.90;;;;;;5062636;28;20030;-79
2022/07/29 04:18:09;;;;;;;;;;;15.00;99.90;;;;;;5064824;28;20355;-79
2022/07/29 04:20:34;;;;;;;;;;;15.00;99.90;;;;;;5063457;28;19920;-79
2022/07/29 04:23:00;;;;;;;;;;;15.10;99.90;;;;;;5064922;28;19916;-77
2022/07/29 04:25:25;;;;;;;;;;;15.20;99.90;;;;;;5062973;28;19917;-76
2022/07/29 04:27:59;;;;;;;;;;;15.20;99.90;;;;;;5065839;28;19955;-78
2022/07/29 04:30:25;;;;;;;;;;;15.20;99.90;;;;;;5052962;28;19956;-80
2022/07/29 04:32:50;;;;;;;;;;;15.20;99.90;;;;;;5050659;28;19960;-77
2022/07/29 04:35:16;;;;;;;;;;;15.20;99.90;;;;;;5066218;28;19926;-79
2022/07/29 04:37:41;;;;;;;;;;;15.30;99.90;;;;;;5068300;28;19912;-79
2022/07/29 04:40:07;;;;;;;;;;;15.30;99.90;;;;;;5066488;28;19916;-80
2022/07/29 04:42:32;;;;;;;;;;;15.40;99.90;;;;;;5057090;28;19913;-78
2022/07/29 04:44:58;;;;;;;;;;;15.40;99.90;;;;;;5065797;28;19923;-78
2022/07/29 04:47:23;;;;;;;;;;;15.40;99.90;;;;;;5068451;28;19919;-79
2022/07/29 04:49:48;;;;;;;;;;;15.40;99.90;;;;;;5066085;28;19912;-78
2022/07/29 04:52:14;;;;;;;;;;;15.50;99.90;;;;;;5068602;28;20294;-79
2022/07/29 04:54:39;;;;;;;;;;;15.60;99.90;;;;;;5067215;28;19920;-79
2022/07/29 04:57:05;;;;;;;;;;;15.70;99.90;;;;;;5063233;28;20010;-79
2022/07/29 04:59:30;;;;;;;;;;;15.70;99.90;;;;;;5067681;28;19916;-77
2022/07/29 05:01:55;;;;;;;;;;;15.80;99.90;;;;;;5068286;28;19920;-79
2022/07/29 05:04:21;;;;;;;;;;;15.80;99.90;;;;;;5069126;28;20444;-78
2022/07/29 05:06:46;;;;;;;;;;;16.00;99.90;;;;;;5062094;28;19917;-81
2022/07/29 05:09:12;;;;;;;;;;;16.00;99.90;;;;;;5069247;28;19916;-79
2022/07/29 05:11:37;;;;;;;;;;;16.40;99.90;;;;;;5068187;28;19916;-79
2022/07/29 05:14:02;;;;;;;;;;;16.40;99.90;;;;;;5069243;28;20321;-79
2022/07/29 05:16:28;;;;;;;;;;;16.40;99.90;;;;;;5066364;28;19970;-78
2022/07/29 05:18:53;;;;;;;;;;;16.40;99.90;;;;;;5067161;28;19958;-78
2022/07/29 05:21:19;;;;;;;;;;;16.50;99.90;;;;;;5066122;28;19913;-79
2022/07/29 05:23:44;;;;;;;;;;;16.50;99.90;;;;;;5068698;28;19912;-78
2022/07/29 05:26:10;;;;;;;;;;;16.50;99.90;;;;;;5066752;28;20690;-78
2022/07/29 05:28:35;;;;;;;;;;;16.70;99.90;;;;;;5074643;28;19944;-77
2022/07/29 05:31:01;;;;;;;;;;;16.50;99.90;;;;;;5075009;28;19921;-78
2022/07/29 05:33:26;;;;;;;;;;;16.30;99.90;;;;;;5083637;28;19916;-76
2022/07/29 05:35:52;;;;;;;;;;;16.50;99.90;;;;;;5082687;28;20023;-81
2022/07/29 05:38:17;;;;;;;;;;;16.40;99.90;;;;;;5083215;28;19927;-78
2022/07/29 05:40:43;;;;;;;;;;;16.50;99.90;;;;;;5080789;28;19916;-78
2022/07/29 05:43:08;;;;;;;;;;;16.50;99.90;;;;;;5077289;28;19916;-77
2022/07/29 05:45:33;;;;;;;;;;;16.60;99.90;;;;;;5083039;28;19912;-82
2022/07/29 05:47:59;;;;;;;;;;;16.70;99.90;;;;;;5088918;28;19916;-77
2022/07/29 05:50:24;;;;;;;;;;;16.70;99.90;;;;;;5078217;28;19986;-77
2022/07/29 05:52:50;;;;;;;;;;;16.90;99.90;;;;;;5074797;28;19912;-76
2022/07/29 05:55:15;;;;;;;;;;;17.00;99.90;;;;;;5083581;28;19947;-78
2022/07/29 05:57:43;;;;;;;;;;;17.10;99.90;;;;;;5081755;28;19928;-77
2022/07/29 06:00:09;;;;;;;;;;;17.10;99.90;;;;;;5064882;28;20012;-76
2022/07/29 06:02:34;;;;;;;;;;;17.30;99.90;;;;;;5076093;28;20002;-77
2022/07/29 06:04:59;;;;;;;;;;;17.50;99.90;;;;;;5079440;28;19912;-77
2022/07/29 06:07:25;;;;;;;;;;;17.50;99.90;;;;;;5083300;28;19919;-77
2022/07/29 06:09:50;;;;;;;;;;;17.90;99.90;;;;;;5087961;28;19916;-78
2022/07/29 06:12:16;;;;;;;;;;;18.00;99.90;;;;;;5087704;28;19923;-79
2022/07/29 06:14:41;;;;;;;;;;;18.00;99.90;;;;;;5088775;28;19988;-77
2022/07/29 06:17:07;;;;;;;;;;;18.10;99.90;;;;;;5086518;28;19916;-75
2022/07/29 06:19:36;;;;;;;;;;;18.10;99.90;;;;;;5084335;28;19912;-78
2022/07/29 06:22:01;;;;;;;;;;;18.20;99.90;;;;;;5072038;28;19982;-78
2022/07/29 06:24:27;;;;;;;;;;;18.20;99.90;;;;;;5080531;28;19916;-77
2022/07/29 06:26:52;;;;;;;;;;;18.10;99.90;;;;;;5067083;28;20440;-78
2022/07/29 06:29:18;;;;;;;;;;;18.10;99.90;;;;;;5081221;28;19912;-79
2022/07/29 06:31:43;;;;;;;;;;;18.20;99.90;;;;;;5081823;28;19916;-78
2022/07/29 06:34:09;;;;;;;;;;;18.40;99.90;;;;;;5080377;28;19920;-79
2022/07/29 06:36:35;;;;;;;;;;;18.20;99.90;;;;;;5069327;28;19919;-79
2022/07/29 06:39:03;;;;;;;;;;;18.30;99.90;;;;;;5081285;28;19928;-79
2022/07/29 06:41:28;;;;;;;;;;;18.50;99.90;;;;;;5082216;28;19912;-78
2022/07/29 06:43:53;;;;;;;;;;;18.60;99.90;;;;;;5086534;28;19916;-77
2022/07/29 06:46:19;;;;;;;;;;;18.60;99.90;;;;;;5084813;28;19938;-78
2022/07/29 06:48:45;;;;;;;;;;;18.60;99.90;;;;;;5084029;28;19984;-78
2022/07/29 06:51:11;;;;;;;;;;;18.80;99.90;;;;;;5078880;28;19916;-78
2022/07/29 06:53:37;;;;;;;;;;;18.80;99.90;;;;;;5082488;28;20003;-78
2022/07/29 06:56:03;;;;;;;;;;;18.70;99.90;;;;;;5062601;28;20425;-77
2022/07/29 06:58:29;;;;;;;;;;;18.70;99.90;;;;;;5070643;28;19924;-76
2022/07/29 07:00:55;;;;;;;;;;;18.70;99.90;;;;;;5063140;28;19959;-78
2022/07/29 07:03:20;;;;;;;;;;;18.90;99.90;;;;;;5062057;28;19916;-78
2022/07/29 07:05:46;;;;;;;;;;;19.20;99.90;;;;;;5065322;28;19912;-76
2022/07/29 07:08:12;;;;;;;;;;;19.10;99.90;;;;;;5071699;28;19913;-78
2022/07/29 07:10:38;;;;;;;;;;;19.00;99.90;;;;;;5061838;28;20275;-78
2022/07/29 07:13:04;;;;;;;;;;;19.20;99.90;;;;;;5066788;28;19912;-80
2022/07/29 07:15:29;;;;;;;;;;;19.40;99.90;;;;;;5065955;28;19920;-78
2022/07/29 07:17:54;;;;;;;;;;;19.50;99.90;;;;;;5068461;28;19974;-79
2022/07/29 07:20:20;;;;;;;;;;;19.90;99.90;;;;;;5061070;28;19917;-78
2022/07/29 07:22:45;;;;;;;;;;;20.00;99.90;;;;;;5063153;28;19923;-80
2022/07/29 07:25:11;;;;;;;;;;;20.00;99.70;;;;;;5062149;28;19920;-79
2022/07/29 07:27:37;;;;;;;;;;;20.00;99.20;;;;;;5064892;28;19912;-78
2022/07/29 07:30:03;;;;;;;;;;;20.50;98.80;;;;;;5064278;28;20398;-77
2022/07/29 07:32:28;;;;;;;;;;;20.60;98.00;;;;;;5058465;28;20435;-81
2022/07/29 07:34:54;;;;;;;;;;;20.70;97.50;;;;;;5065213;28;19926;-82
2022/07/29 07:37:20;;;;;;;;;;;20.60;97.10;;;;;;5063491;28;20397;-83
2022/07/29 07:39:46;;;;;;;;;;;20.60;97.40;;;;;;5065152;28;19917;-82
2022/07/29 07:42:12;;;;;;;;;;;20.50;97.30;;;;;;5063670;28;19951;-83
2022/07/29 07:44:38;;;;;;;;;;;20.70;97.10;;;;;;5065177;28;19916;-81
2022/07/29 07:47:04;;;;;;;;;;;20.70;96.70;;;;;;5063356;28;19919;-81
2022/07/29 07:49:29;;;;;;;;;;;20.80;96.40;;;;;;5064839;28;19923;-83
2022/07/29 07:51:55;;;;;;;;;;;20.70;96.50;;;;;;5060893;28;19966;-82
2022/07/29 07:54:20;;;;;;;;;;;20.60;96.50;;;;;;5064309;28;20027;-78
2022/07/29 07:56:48;;;;;;;;;;;20.70;96.40;;;;;;5058558;28;19926;-78
2022/07/29 07:59:14;;;;;;;;;;;21.10;96.60;;;;;;5058668;28;19908;-81
2022/07/29 08:01:39;;;;;;;;;;;21.50;95.00;;;;;;5061241;28;19923;-81
2022/07/29 08:04:04;;;;;;;;;;;21.70;94.50;;;;;;5066775;28;19966;-82
2022/07/29 08:06:30;;;;;;;;;;;21.70;94.00;;;;;;5067630;28;20354;-78
2022/07/29 08:08:55;;;;;;;;;;;21.90;93.20;;;;;;5068287;28;19920;-75
2022/07/29 08:11:21;;;;;;;;;;;22.10;91.90;;;;;;5066020;28;19920;-80
2022/07/29 08:13:47;;;;;;;;;;;22.30;91.30;;;;;;5061967;28;19920;-83
2022/07/29 08:16:12;;;;;;;;;;;22.40;90.70;;;;;;5067022;28;20390;-80
2022/07/29 08:18:38;;;;;;;;;;;22.70;90.50;;;;;;5068486;28;19923;-79
2022/07/29 08:21:04;;;;;;;;;;;22.70;89.30;;;;;;5066378;28;19958;-80
2022/07/29 08:23:38;;;;;;;;;;;22.80;89.20;;;;;;5068661;28;19913;-81
2022/07/29 08:26:12;;;;;;;;;;;22.90;89.50;;;;;;5066810;28;19927;-78
2022/07/29 08:28:38;;;;;;;;;;;23.10;88.30;;;;;;5052420;28;20038;-81
2022/07/29 08:31:03;;;;;;;;;;;23.30;85.80;;;;;;5066854;28;19922;-81
2022/07/29 08:33:29;;;;;;;;;;;23.40;84.00;;;;;;5068191;28;20370;-77
2022/07/29 08:35:54;;;;;;;;;;;23.50;82.10;;;;;;5069388;28;19948;-94
2022/07/29 08:38:19;;;;;;;;;;;23.50;81.60;;;;;;5074697;28;19916;-88
2022/07/29 08:40:45;;;;;;;;;;;23.40;82.20;;;;;;5066929;28;19935;-87
2022/07/29 08:43:11;;;;;;;;;;;23.60;81.60;;;;;;5066591;28;19959;-87
2022/07/29 08:45:42;;;;;;;;;;;23.70;77.30;;;;;;5067497;28;20314;-88
2022/07/29 08:48:07;;;;;;;;;;;23.60;76.50;;;;;;5072423;28;19917;-88
2022/07/29 08:50:35;;;;;;;;;;;23.60;76.30;;;;;;5070441;28;19912;-88
2022/07/29 08:53:00;;;;;;;;;;;23.60;75.80;;;;;;5073420;28;20302;-88
2022/07/29 08:55:26;;;;;;;;;;;23.80;76.40;;;;;;5073682;28;19920;-88
2022/07/29 08:57:52;;;;;;;;;;;23.90;75.20;;;;;;5083066;28;19925;-87
2022/07/29 09:00:17;;;;;;;;;;;24.00;74.50;;;;;;5087723;28;19927;-88
2022/07/29 09:02:47;;;;;;;;;;;24.00;74.40;;;;;;5086020;28;20313;-88
2022/07/29 09:05:13;;;;;;;;;;;24.00;74.10;;;;;;5084980;28;19904;-88
2022/07/29 09:07:38;;;;;;;;;;;24.00;74.70;;;;;;5085824;28;19951;-88
2022/07/29 09:10:04;;;;;;;;;;;24.00;74.20;;;;;;5085846;28;19916;-87
2022/07/29 09:12:30;;;;;;;;;;;23.90;72.20;;;;;;5083799;28;19942;-88
2022/07/29 09:14:55;;;;;;;;;;;24.10;72.30;;;;;;5084093;28;19920;-88
2022/07/29 09:17:38;;;;;;;;;;;24.10;71.40;;;;;;5085403;28;19916;-88
2022/07/29 09:20:11;;;;;;;;;;;24.30;72.50;;;;;;5075024;28;19916;-88
2022/07/29 09:22:37;;;;;;;;;;;24.70;71.00;;;;;;5072974;28;19919;-89
2022/07/29 09:25:02;;;;;;;;;;;24.80;70.70;;;;;;5073092;28;19916;-88
2022/07/29 09:27:28;;;;;;;;;;;24.80;70.10;;;;;;5068615;28;19916;-87
2022/07/29 09:30:00;;;;;;;;;;;24.50;69.00;;;;;;5071372;28;19916;-87
2022/07/29 09:32:26;;;;;;;;;;;24.70;69.30;;;;;;5071781;28;19917;-86
2022/07/29 09:35:11;;;;;;;;;;;24.80;68.00;;;;;;5073219;28;20267;-88
2022/07/29 09:37:37;;;;;;;;;;;25.10;68.50;;;;;;5066907;28;19943;-88
2022/07/29 09:40:10;;;;;;;;;;;25.60;67.00;;;;;;5073951;28;19927;-88
2022/07/29 09:42:37;;;;;;;;;;;25.30;65.10;;;;;;5068719;28;20333;-88
2022/07/29 09:45:03;;;;;;;;;;;24.90;65.50;;;;;;5072080;28;19920;-88
2022/07/29 09:47:40;;;;;;;;;;;24.90;65.50;;;;;;5070594;28;19916;-88
2022/07/29 09:50:05;;;;;;;;;;;24.80;64.30;;;;;;5050905;28;19920;-89
2022/07/29 09:52:31;;;;;;;;;;;24.60;63.10;;;;;;5068760;28;19912;-89
2022/07/29 09:55:06;;;;;;;;;;;24.80;64.20;;;;;;5073247;28;19966;-89
2022/07/29 09:57:32;;;;;;;;;;;25.00;63.10;;;;;;5072999;28;19928;-88
2022/07/29 10:00:06;;;;;;;;;;;25.10;64.70;;;;;;5075259;28;19936;-88
2022/07/29 10:02:33;;;;;;;;;;;25.30;62.80;;;;;;5070426;28;19916;-87
2022/07/29 10:04:59;;;;;;;;;;;25.30;62.50;;;;;;5071598;28;20264;-90
2022/07/29 10:07:24;;;;;;;;;;;25.40;61.40;;;;;;5069707;28;19995;-89
2022/07/29 10:09:56;;;;;;;;;;;25.60;62.20;;;;;;5081778;28;19924;-92
2022/07/29 10:12:22;;;;;;;;;;;25.50;61.20;;;;;;5081664;28;20430;-92
2022/07/29 10:14:48;;;;;;;;;;;25.30;59.90;;;;;;5090604;28;19939;-92
2022/07/29 10:17:15;;;;;;;;;;;25.20;60.80;;;;;;5081617;28;19912;-90
2022/07/29 10:19:42;;;;;;;;;;;25.30;61.00;;;;;;5075342;28;19999;-88
2022/07/29 10:22:09;;;;;;;;;;;25.60;60.40;;;;;;5071443;28;19924;-89
2022/07/29 10:24:35;;;;;;;;;;;25.20;59.90;;;;;;5073260;28;19913;-91
2022/07/29 10:27:01;;;;;;;;;;;25.40;61.10;;;;;;5069255;28;19942;-90
2022/07/29 10:29:28;;;;;;;;;;;25.70;59.60;;;;;;5071366;28;20475;-87
2022/07/29 10:32:05;;;;;;;;;;;25.50;58.20;;;;;;5069837;28;19912;-92
2022/07/29 10:34:43;;;;;;;;;;;25.50;58.20;;;;;;5080359;28;19923;-89
2022/07/29 10:37:28;;;;;;;;;;;25.80;56.70;;;;;;5067727;28;19913;-92
2022/07/29 10:39:54;;;;;;;;;;;25.80;56.80;;;;;;5054600;28;19968;-90
2022/07/29 10:42:21;;;;;;;;;;;26.10;57.40;;;;;;5069527;28;19959;-90
2022/07/29 10:44:46;;;;;;;;;;;26.20;55.20;;;;;;5080629;28;19912;-91
2022/07/29 10:47:25;;;;;;;;;;;26.00;56.10;;;;;;5086707;28;19901;-91
2022/07/29 10:50:09;;;;;;;;;;;26.20;55.50;;;;;;5072614;28;20386;-88
2022/07/29 10:52:49;;;;;;;;;;;26.00;56.90;;;;;;5075107;28;20370;-92
2022/07/29 10:55:34;;;;;;;;;;;26.10;55.90;;;;;;5071551;28;20003;-90
2022/07/29 10:58:13;;;;;;;;;;;26.00;55.40;;;;;;5062633;28;19916;-87
2022/07/29 11:00:39;;;;;;;;;;;26.30;56.10;;;;;;5072568;28;19936;-81
2022/07/29 11:03:04;;;;;;;;;;;26.60;56.00;;;;;;5071566;28;19912;-89
2022/07/29 11:05:31;;;;;;;;;;;27.10;54.70;;;;;;5075043;28;20422;-89
2022/07/29 11:08:18;;;;;;;;;;;27.10;54.80;;;;;;5074409;28;20298;-87
2022/07/29 11:10:44;;;;;;;;;;;27.20;54.10;;;;;;5069835;28;19932;-89
2022/07/29 11:13:09;;;;;;;;;;;27.30;54.00;;;;;;5085698;28;19928;-89
2022/07/29 11:16:07;;;;;;;;;;;27.20;53.60;;;;;;5076301;28;20358;-85
2022/07/29 11:18:33;;;;;;;;;;;27.60;54.90;;;;;;5034716;28;20440;-86
2022/07/29 11:20:59;;;;;;;;;;;27.90;52.70;;;;;;5072851;28;19916;-87
2022/07/29 11:23:33;;;;;;;;;;;27.80;52.90;;;;;;5068047;28;20268;-87
2022/07/29 11:26:19;;;;;;;;;;;28.30;52.70;;;;;;5078598;28;19909;-88
2022/07/29 11:28:57;;;;;;;;;;;28.30;52.60;;;;;;5070936;28;19912;-90
2022/07/29 11:31:34;;;;;;;;;;;28.40;52.10;;;;;;5070330;28;19920;-87
2022/07/29 11:34:18;;;;;;;;;;;28.10;51.20;;;;;;5070621;28;20359;-88
2022/07/29 11:37:12;;;;;;;;;;;28.20;51.60;;;;;;5068422;28;20061;-89
2022/07/29 11:39:44;;;;;;;;;;;28.70;50.90;;;;;;5068743;28;20058;-88
2022/07/29 11:42:24;;;;;;;;;;;29.10;51.30;;;;;;5072654;28;19947;-88
2022/07/29 11:44:53;;;;;;;;;;;29.10;50.10;;;;;;5072175;28;19961;-88
2022/07/29 11:47:22;;;;;;;;;;;29.40;49.60;;;;;;5069277;28;19913;-88
2022/07/29 11:49:48;;;;;;;;;;;28.90;49.60;;;;;;5074938;28;19966;-88
2022/07/29 11:52:13;;;;;;;;;;;28.70;51.10;;;;;;5072497;28;19955;-88
2022/07/29 11:54:41;;;;;;;;;;;29.20;51.40;;;;;;5075382;28;19941;-88
2022/07/29 11:57:07;;;;;;;;;;;29.30;49.00;;;;;;5076719;28;19952;-90
2022/07/29 11:59:38;;;;;;;;;;;29.40;49.30;;;;;;5080965;28;19920;-89
2022/07/29 12:02:06;;;;;;;;;;;29.30;49.70;;;;;;5069415;28;19923;-88
2022/07/29 12:04:31;;;;;;;;;;;29.50;49.70;;;;;;5079537;28;19916;-89
2022/07/29 12:06:57;;;;;;;;;;;29.10;49.70;;;;;;5082872;28;20007;-91
2022/07/29 12:09:25;;;;;;;;;;;29.60;50.20;;;;;;5076674;28;19939;-90
2022/07/29 12:11:57;;;;;;;;;;;29.40;51.10;;;;;;5069439;28;20029;-86
2022/07/29 12:14:29;;;;;;;;;;;29.60;49.70;;;;;;5067154;28;19924;-87
2022/07/29 12:16:55;;;;;;;;;;;29.30;50.80;;;;;;5071510;28;19897;-88
2022/07/29 12:19:26;;;;;;;;;;;29.70;50.40;;;;;;5165021;22;19932;-90
2022/07/29 12:21:54;;;;;;;;;;;29.30;50.80;;;;;;5086026;28;20266;-88
2022/07/29 12:24:20;;;;;;;;;;;29.30;50.90;;;;;;5073651;28;19916;-90
2022/07/29 12:26:49;;;;;;;;;;;29.40;52.10;;;;;;5075584;28;20355;-87
2022/07/29 12:29:16;;;;;;;;;;;29.50;51.20;;;;;;5077513;28;19912;-87
2022/07/29 12:31:44;;;;;;;;;;;29.50;51.00;;;;;;5074194;28;19913;-88
2022/07/29 12:34:14;;;;;;;;;;;30.00;50.90;;;;;;5077840;28;20342;-87
2022/07/29 12:36:41;;;;;;;;;;;31.10;49.80;;;;;;5075160;28;19966;-84
2022/07/29 12:39:07;;;;;;;;;;;30.70;49.20;;;;;;5069423;28;20410;-84
2022/07/29 12:41:32;;;;;;;;;;;30.90;48.90;;;;;;5066111;28;19928;-83
2022/07/29 12:43:57;;;;;;;;;;;31.00;48.80;;;;;;5069235;28;20329;-85
2022/07/29 12:46:23;;;;;;;;;;;31.00;48.00;;;;;;5074767;28;20374;-86
2022/07/29 12:48:56;;;;;;;;;;;30.50;50.00;;;;;;5072619;28;19913;-87
2022/07/29 12:51:32;;;;;;;;;;;30.00;50.80;;;;;;5075828;28;19952;-91
2022/07/29 12:54:11;;;;;;;;;;;30.30;50.60;;;;;;5083411;28;19905;-89
2022/07/29 12:59:16;;;;;;;;;;;30.20;50.90;;;;;;5545319;22;19925;-88
2022/07/29 13:01:41;;;;;;;;;;;30.30;48.70;;;;;;5028175;28;19910;-88
2022/07/29 13:04:07;;;;;;;;;;;30.20;49.80;;;;;;5019656;28;20290;-88
2022/07/29 13:06:35;;;;;;;;;;;30.90;48.30;;;;;;5006701;28;19936;-87
2022/07/29 13:09:03;;;;;;;;;;;30.70;49.00;;;;;;5016926;28;19910;-84
2022/07/29 13:11:32;;;;;;;;;;;30.60;49.30;;;;;;5007510;28;20024;-85
2022/07/29 13:13:58;;;;;;;;;;;31.10;49.60;;;;;;5010361;28;19928;-87
2022/07/29 13:16:23;;;;;;;;;;;30.20;49.10;;;;;;5010457;28;19918;-88
2022/07/29 13:19:02;;;;;;;;;;;29.60;50.50;;;;;;5014598;28;19975;-88
2022/07/29 13:21:28;;;;;;;;;;;29.70;50.10;;;;;;5010394;28;19913;-90
2022/07/29 13:23:53;;;;;;;;;;;29.70;50.90;;;;;;5011775;28;19936;-88
2022/07/29 13:26:19;;;;;;;;;;;30.30;49.50;;;;;;5012927;28;19946;-89
2022/07/29 13:28:45;;;;;;;;;;;30.90;49.30;;;;;;5008645;28;19967;-85
2022/07/29 13:31:10;;;;;;;;;;;30.10;49.40;;;;;;4992256;28;19918;-86
2022/07/29 13:33:35;;;;;;;;;;;30.70;50.00;;;;;;5005110;28;19959;-85
2022/07/29 13:36:01;;;;;;;;;;;31.50;48.10;;;;;;5005802;28;19948;-87
2022/07/29 13:38:27;;;;;;;;;;;30.80;48.90;;;;;;5009690;28;19924;-86
2022/07/29 13:40:52;;;;;;;;;;;30.80;48.40;;;;;;5009869;28;20242;-87
2022/07/29 13:43:17;;;;;;;;;;;31.00;48.40;;;;;;5016826;28;19941;-89
2022/07/29 13:45:43;;;;;;;;;;;31.10;50.00;;;;;;5029901;28;19917;-89
2022/07/29 13:48:08;;;;;;;;;;;31.10;48.30;;;;;;5002936;28;19922;-87
2022/07/29 13:50:34;;;;;;;;;;;29.90;49.10;;;;;;5002507;28;20371;-87
2022/07/29 13:52:59;;;;;;;;;;;29.90;50.20;;;;;;5001053;28;19918;-91
2022/07/29 13:55:25;;;;;;;;;;;31.50;49.10;;;;;;5032775;28;19925;-90
2022/07/29 13:57:50;;;;;;;;;;;31.10;48.30;;;;;;4996737;28;19922;-85
2022/07/29 14:00:16;;;;;;;;;;;31.00;48.70;;;;;;4989176;28;19929;-85
2022/07/29 14:02:41;;;;;;;;;;;30.50;48.70;;;;;;4992253;28;19917;-85
2022/07/29 14:05:07;;;;;;;;;;;30.90;48.10;;;;;;4990617;28;19924;-83
2022/07/29 14:07:33;;;;;;;;;;;31.30;48.60;;;;;;4996460;28;19942;-83
2022/07/29 14:10:00;;;;;;;;;;;31.40;48.20;;;;;;5003938;28;21318;-86
2022/07/29 14:12:25;;;;;;;;;;;31.70;47.20;;;;;;4992745;28;19925;-86
2022/07/29 14:14:51;;;;;;;;;;;32.50;47.20;;;;;;4978987;28;20403;-87
2022/07/29 14:17:16;;;;;;;;;;;32.70;45.80;;;;;;4996684;28;19971;-87
2022/07/29 14:19:42;;;;;;;;;;;32.60;46.20;;;;;;4950064;28;19921;-88
2022/07/29 14:22:08;;;;;;;;;;;32.80;45.60;;;;;;4987584;28;19964;-86
2022/07/29 14:24:34;;;;;;;;;;;32.70;45.80;;;;;;4990575;28;19910;-86
2022/07/29 14:26:59;;;;;;;;;;;32.60;47.50;;;;;;5005882;28;19917;-86
2022/07/29 14:29:25;;;;;;;;;;;33.40;44.10;;;;;;5003207;28;19984;-86
2022/07/29 14:31:50;;;;;;;;;;;33.50;43.20;;;;;;4984533;28;19922;-88
2022/07/29 14:34:16;;;;;;;;;;;32.40;44.70;;;;;;4992569;28;19937;-87
2022/07/29 14:36:41;;;;;;;;;;;32.20;45.10;;;;;;5003741;28;19924;-89
2022/07/29 14:39:07;;;;;;;;;;;32.60;44.40;;;;;;4992810;28;19925;-87